This is the latest recevied weather packets stored in our database for station/object KB9MLJ. If no packets are shown the sender has not sent any weather packets the latest 10 day(s).
| Time | Temp. | Humidity | Pressure | Rain* | Wind** | Luminosity | Snow |
|---|---|---|---|---|---|---|---|
| 1777829273 | 12.22° C | 65% | 1013.7 hPa | 0 mm | - | 92 W/m² | - |
| 1777828970 | 12.22° C | 71% | 1014 hPa | 0 mm | - | 66 W/m² | - |
| 1777828666 | 12.22° C | 69% | 1014 hPa | 0 mm | - | 69 W/m² | - |
| 1777828364 | 12.22° C | 68% | 1014 hPa | 0 mm | - | 56 W/m² | - |
| 1777828061 | 12.22° C | 68% | 1014 hPa | 0 mm | - | 59 W/m² | - |
| 1777827757 | 12.22° C | 67% | 1014 hPa | 0 mm | - | 68 W/m² | - |
| 1777827454 | 12.22° C | 68% | 1014 hPa | 0.25 mm | - | 57 W/m² | - |
| 1777827151 | 11.67° C | 69% | 1014 hPa | 0.25 mm | - | 66 W/m² | - |
| 1777826847 | 11.67° C | 71% | 1013.7 hPa | 0.25 mm | - | 138 W/m² | - |
| 1777826545 | 11.11° C | 77% | 1014 hPa | 0.25 mm | - | 133 W/m² | - |
| 1777826241 | 11.67° C | 76% | 1014.4 hPa | 0.25 mm | - | 80 W/m² | - |
| 1777825939 | 11.67° C | 74% | 1014.4 hPa | 0 mm | - | 74 W/m² | - |
| 1777825636 | 11.67° C | 72% | 1014.4 hPa | 0 mm | - | 78 W/m² | - |
| 1777825334 | 11.67° C | 72% | 1014.4 hPa | 0 mm | - | 111 W/m² | - |
| 1777825030 | 11.67° C | 71% | 1015 hPa | 0 mm | - | 106 W/m² | - |
| 1777824726 | 12.22° C | 70% | 1014.7 hPa | 0 mm | - | 99 W/m² | - |
| 1777824424 | 12.22° C | 68% | 1014.7 hPa | 0 mm | - | 87 W/m² | - |
| 1777824119 | 12.22° C | 67% | 1015 hPa | 0 mm | - | 80 W/m² | - |
| 1777823815 | 12.22° C | 67% | 1015 hPa | 0 mm | - | 133 W/m² | - |
| 1777823513 | 12.22° C | 64% | 1015 hPa | 0 mm | - | 120 W/m² | - |
| 1777823210 | 12.22° C | 65% | 1015 hPa | 0 mm | - | 122 W/m² | - |
| 1777822908 | 11.67° C | 69% | 1015.4 hPa | 0 mm | - | 117 W/m² | - |
| 1777822606 | 11.67° C | 71% | 1015 hPa | 0 mm | - | 121 W/m² | - |
| 1777822303 | 11.67° C | 69% | 1015.4 hPa | 0 mm | - | 95 W/m² | - |
| 1777822001 | 12.22° C | 68% | 1015.4 hPa | 0 mm | - | 88 W/m² | - |
* Rain latest hour (hover to see other rain measurements)
** Current wind speed in m/s (hover to see current wind gust speed)